Time;durP1;ratioP1;P1;durP2;ratioP2;P2;SDS_P1;SDS_P2;PMS_P1;PMS_P2;Temp;Humidity;BMP_temperature;BMP_pressure;BME280_temperature;BME280_humidity;BME280_pressure;Samples;Min_cycle;Max_cycle;Signal;HPM_P1;HPM_P2
2024/02/03 00:00:16;;;;;;;17.30;12.67;;;9.90;99.90;;;;;;4986998;28;20500;-35
2024/02/03 00:02:44;;;;;;;17.33;13.40;;;9.90;99.90;;;;;;4960989;28;20449;-40
2024/02/03 00:05:13;;;;;;;17.37;13.70;;;9.90;99.90;;;;;;4994786;28;21100;-38
2024/02/03 00:07:41;;;;;;;16.57;13.40;;;9.90;99.90;;;;;;4990020;28;20422;-35
2024/02/03 00:10:10;;;;;;;16.23;12.80;;;9.90;99.90;;;;;;4999605;28;20471;-36
2024/02/03 00:12:36;;;;;;;19.53;12.90;;;9.90;99.90;;;;;;4992011;28;20456;-37
2024/02/03 00:15:03;;;;;;;17.17;11.93;;;9.90;99.90;;;;;;4975607;28;20571;-40
2024/02/03 00:17:29;;;;;;;14.87;11.90;;;9.90;99.90;;;;;;5000004;28;21018;-32
2024/02/03 00:19:55;;;;;;;13.17;11.37;;;9.90;99.90;;;;;;4999287;28;20439;-37
2024/02/03 00:22:24;;;;;;;15.57;11.87;;;9.90;99.90;;;;;;4993334;28;20461;-37
2024/02/03 00:24:52;;;;;;;14.27;11.90;;;9.90;99.90;;;;;;4990778;28;20436;-36
2024/02/03 00:27:18;;;;;;;17.20;11.57;;;9.90;99.90;;;;;;4994573;28;20433;-36
2024/02/03 00:29:44;;;;;;;14.63;11.20;;;9.90;99.90;;;;;;4997466;28;21002;-31
2024/02/03 00:32:10;;;;;;;14.80;11.17;;;9.90;99.90;;;;;;5000957;28;20591;-32
2024/02/03 00:34:40;;;;;;;16.87;12.57;;;9.90;99.90;;;;;;4988181;28;20465;-32
2024/02/03 00:37:09;;;;;;;13.73;10.50;;;9.90;99.90;;;;;;4998020;28;21398;-39
2024/02/03 00:39:35;;;;;;;14.30;11.63;;;9.90;99.90;;;;;;4996737;28;20468;-40
2024/02/03 00:42:01;;;;;;;12.00;10.33;;;9.90;99.90;;;;;;4999685;28;20444;-39
2024/02/03 00:44:27;;;;;;;14.50;11.33;;;9.90;99.90;;;;;;4993707;28;20438;-34
2024/02/03 00:46:55;;;;;;;14.67;10.30;;;9.90;99.90;;;;;;4999663;28;20510;-38
2024/02/03 00:49:21;;;;;;;12.20;10.30;;;9.90;99.90;;;;;;4996884;28;20448;-40
2024/02/03 00:51:47;;;;;;;13.20;9.87;;;9.90;99.90;;;;;;4998422;28;20963;-33
2024/02/03 00:54:13;;;;;;;11.47;9.70;;;9.90;99.90;;;;;;4996986;28;20439;-35
2024/02/03 00:56:41;;;;;;;13.77;9.87;;;9.90;99.90;;;;;;4991309;28;20420;-34
2024/02/03 00:59:07;;;;;;;15.53;10.00;;;9.90;99.90;;;;;;4992821;28;20523;-35
2024/02/03 01:01:36;;;;;;;11.73;9.57;;;9.90;99.90;;;;;;5000316;28;20473;-38
2024/02/03 01:04:02;;;;;;;13.27;10.57;;;9.90;99.90;;;;;;4979058;28;20503;-34
2024/02/03 01:06:33;;;;;;;11.70;10.20;;;9.90;99.90;;;;;;4993359;28;20860;-33
2024/02/03 01:08:59;;;;;;;11.03;9.50;;;9.90;99.90;;;;;;4998929;28;21141;-37
2024/02/03 01:11:25;;;;;;;14.10;9.70;;;9.90;99.90;;;;;;4991766;28;21147;-36
2024/02/03 01:13:51;;;;;;;12.47;10.67;;;9.90;99.90;;;;;;4992425;28;20433;-35
2024/02/03 01:16:21;;;;;;;11.30;9.97;;;9.90;99.90;;;;;;4999851;28;20476;-31
2024/02/03 01:18:50;;;;;;;11.03;8.53;;;9.90;99.90;;;;;;4993465;28;20509;-30
2024/02/03 01:21:17;;;;;;;11.33;9.43;;;9.90;99.90;;;;;;4984218;28;20444;-35
2024/02/03 01:23:44;;;;;;;11.20;8.83;;;9.90;99.90;;;;;;4995392;28;20875;-38
2024/02/03 01:26:10;;;;;;;11.10;9.40;;;9.90;99.90;;;;;;4986978;28;20808;-35
2024/02/03 01:28:36;;;;;;;9.97;8.60;;;9.90;99.90;;;;;;4990908;28;20428;-39
2024/02/03 01:31:02;;;;;;;9.60;8.43;;;9.90;99.90;;;;;;4986308;28;20502;-36
2024/02/03 01:33:31;;;;;;;12.43;9.70;;;9.90;99.90;;;;;;4988069;28;20454;-35
2024/02/03 01:35:57;;;;;;;9.57;8.57;;;9.90;99.90;;;;;;4989165;28;20884;-34
2024/02/03 01:38:23;;;;;;;9.43;8.17;;;9.90;99.90;;;;;;4972293;28;20417;-39
2024/02/03 01:40:50;;;;;;;10.23;8.80;;;9.90;99.90;;;;;;4989054;28;20440;-38
2024/02/03 01:43:16;;;;;;;12.47;9.20;;;10.00;99.90;;;;;;4991811;28;20500;-37
2024/02/03 01:45:42;;;;;;;9.77;8.40;;;10.00;99.90;;;;;;4988641;28;21394;-32
2024/02/03 01:48:11;;;;;;;10.87;8.70;;;10.00;99.90;;;;;;4988228;28;20433;-36
2024/02/03 01:50:44;;;;;;;9.80;8.40;;;10.00;99.90;;;;;;4980966;28;20469;-37
2024/02/03 01:53:12;;;;;;;11.43;7.87;;;10.00;99.90;;;;;;4983948;28;20444;-34
2024/02/03 01:55:38;;;;;;;9.73;8.20;;;10.00;99.90;;;;;;4982376;28;20453;-36
2024/02/03 01:58:06;;;;;;;9.37;7.73;;;10.00;99.90;;;;;;4990726;28;20463;-32
2024/02/03 02:00:37;;;;;;;9.60;7.57;;;10.00;99.90;;;;;;4995179;28;21325;-36
2024/02/03 02:03:03;;;;;;;8.83;7.73;;;10.00;99.90;;;;;;4990343;28;20447;-34
2024/02/03 02:05:29;;;;;;;9.27;7.53;;;10.00;99.90;;;;;;4987370;28;20444;-35
2024/02/03 02:07:58;;;;;;;10.53;8.03;;;10.00;99.90;;;;;;4989394;28;21228;-37
2024/02/03 02:10:24;;;;;;;8.30;7.50;;;10.00;99.90;;;;;;4995415;28;20480;-36
2024/02/03 02:12:51;;;;;;;8.53;7.63;;;10.00;99.90;;;;;;4989468;28;20461;-34
2024/02/03 02:15:17;;;;;;;8.40;7.20;;;10.00;99.90;;;;;;4957582;28;20417;-35
2024/02/03 02:17:43;;;;;;;8.00;7.20;;;10.00;99.90;;;;;;4994477;28;20429;-31
2024/02/03 02:20:10;;;;;;;9.07;7.60;;;10.00;99.90;;;;;;4994436;28;20405;-37
2024/02/03 02:22:36;;;;;;;8.70;7.60;;;10.00;99.90;;;;;;4994651;28;20526;-37
2024/02/03 02:25:04;;;;;;;7.77;6.67;;;10.00;99.90;;;;;;4991944;28;20454;-40
2024/02/03 02:27:33;;;;;;;8.40;7.27;;;10.00;99.90;;;;;;4990031;28;20823;-38
2024/02/03 02:30:00;;;;;;;7.90;6.47;;;10.00;99.90;;;;;;4977277;28;20491;-38
2024/02/03 02:32:27;;;;;;;7.60;6.40;;;10.00;99.90;;;;;;4989769;28;20493;-38
2024/02/03 02:34:53;;;;;;;8.57;7.67;;;10.00;99.90;;;;;;4995402;28;20444;-35
2024/02/03 02:37:19;;;;;;;7.97;7.17;;;10.00;99.90;;;;;;4996137;28;20425;-40
2024/02/03 02:39:50;;;;;;;7.50;6.67;;;10.00;99.90;;;;;;4988807;28;20429;-38
2024/02/03 02:42:18;;;;;;;8.23;7.20;;;10.00;99.90;;;;;;4996785;28;20440;-36
2024/02/03 02:44:46;;;;;;;9.30;6.63;;;10.00;99.90;;;;;;4995967;28;20448;-38
2024/02/03 02:47:12;;;;;;;7.90;6.80;;;10.00;99.90;;;;;;4996759;28;20433;-35
2024/02/03 02:49:38;;;;;;;7.53;6.80;;;10.00;99.90;;;;;;4988511;28;20431;-38
2024/02/03 02:52:06;;;;;;;8.33;7.37;;;10.00;99.90;;;;;;4996088;28;20575;-38
2024/02/03 02:54:32;;;;;;;7.27;6.47;;;10.00;99.90;;;;;;4990313;28;20451;-32
2024/02/03 02:56:58;;;;;;;8.03;7.23;;;10.00;99.90;;;;;;4995497;28;20432;-38
2024/02/03 02:59:24;;;;;;;8.97;7.60;;;10.00;99.90;;;;;;4995048;28;20841;-39
2024/02/03 03:01:53;;;;;;;8.53;7.30;;;10.00;99.90;;;;;;4987682;28;20449;-35
2024/02/03 03:04:19;;;;;;;7.80;7.00;;;10.00;99.90;;;;;;4992382;28;20432;-37
2024/02/03 03:06:47;;;;;;;7.27;6.53;;;10.00;99.90;;;;;;4993698;28;20453;-34
2024/02/03 03:09:16;;;;;;;9.87;8.87;;;10.00;99.90;;;;;;4994311;28;21458;-34
2024/02/03 03:11:43;;;;;;;8.03;7.03;;;10.00;99.90;;;;;;4991078;28;20499;-34
2024/02/03 03:14:09;;;;;;;8.83;7.63;;;10.00;99.90;;;;;;4996390;28;20427;-35
2024/02/03 03:16:36;;;;;;;7.97;7.17;;;10.00;99.90;;;;;;4996078;28;20487;-34
2024/02/03 03:19:01;;;;;;;8.80;6.93;;;10.00;99.90;;;;;;4989635;28;20436;-39
2024/02/03 03:21:30;;;;;;;7.93;7.13;;;10.00;99.90;;;;;;4993505;28;20449;-36
2024/02/03 03:23:56;;;;;;;8.83;7.93;;;10.00;99.90;;;;;;4994322;28;20548;-35
2024/02/03 03:26:27;;;;;;;8.43;6.93;;;10.00;99.90;;;;;;4996430;28;20427;-38
2024/02/03 03:28:53;;;;;;;8.40;7.30;;;10.00;99.90;;;;;;4994371;28;21344;-39
2024/02/03 03:31:21;;;;;;;8.63;7.47;;;10.00;99.90;;;;;;4992274;28;20469;-37
2024/02/03 03:33:47;;;;;;;9.17;7.57;;;10.00;99.90;;;;;;4990340;28;20421;-39
2024/02/03 03:36:15;;;;;;;7.70;6.87;;;10.10;99.90;;;;;;4994285;28;20440;-39
2024/02/03 03:38:46;;;;;;;8.03;7.10;;;10.00;99.90;;;;;;4996205;28;20428;-39
2024/02/03 03:41:14;;;;;;;11.00;8.00;;;10.10;99.90;;;;;;4995726;28;20460;-36
2024/02/03 03:43:43;;;;;;;8.60;7.80;;;10.10;99.90;;;;;;4993187;28;20443;-39
2024/02/03 03:46:11;;;;;;;10.03;7.53;;;10.10;99.90;;;;;;4978478;28;21162;-38
2024/02/03 03:48:37;;;;;;;8.73;7.83;;;10.10;99.90;;;;;;4995560;28;20431;-31
2024/02/03 03:51:03;;;;;;;8.57;7.10;;;10.00;99.90;;;;;;4994874;28;20206;-33
2024/02/03 03:53:29;;;;;;;10.10;7.67;;;10.10;99.90;;;;;;4995338;28;20891;-37
2024/02/03 03:55:58;;;;;;;8.97;7.63;;;10.10;99.90;;;;;;4991897;28;20445;-38
2024/02/03 03:58:24;;;;;;;9.07;7.73;;;10.10;99.90;;;;;;4992337;28;21007;-38
2024/02/03 04:00:50;;;;;;;9.07;7.37;;;10.10;99.90;;;;;;4968051;28;20458;-31
2024/02/03 04:03:16;;;;;;;9.53;7.90;;;10.10;99.90;;;;;;4993162;22;20477;-37
2024/02/03 04:05:42;;;;;;;7.90;7.10;;;10.10;99.90;;;;;;5004629;28;20838;-32
2024/02/03 04:08:10;;;;;;;9.10;7.77;;;10.10;99.90;;;;;;4987760;28;21038;-40
2024/02/03 04:10:37;;;;;;;8.87;7.47;;;10.10;99.90;;;;;;4990744;28;21010;-38
2024/02/03 04:13:03;;;;;;;8.30;7.10;;;10.10;99.90;;;;;;4993506;28;20435;-39
2024/02/03 04:15:33;;;;;;;8.17;6.87;;;10.10;99.90;;;;;;4995102;28;20772;-40
2024/02/03 04:17:59;;;;;;;8.70;7.80;;;10.10;99.90;;;;;;4992573;28;20494;-33
2024/02/03 04:20:26;;;;;;;8.97;7.90;;;10.10;99.90;;;;;;4994067;28;20943;-35
2024/02/03 04:22:54;;;;;;;9.00;7.80;;;10.10;99.90;;;;;;4996035;28;20442;-34
2024/02/03 04:25:20;;;;;;;8.47;7.10;;;10.10;99.90;;;;;;4990032;28;21186;-32
2024/02/03 04:27:46;;;;;;;7.80;7.00;;;10.10;99.90;;;;;;4983054;28;20547;-35
2024/02/03 04:30:12;;;;;;;7.90;7.10;;;10.10;99.90;;;;;;4993093;28;20805;-36
2024/02/03 04:32:43;;;;;;;8.53;7.40;;;10.10;99.90;;;;;;4987212;28;20446;-40
2024/02/03 04:35:09;;;;;;;9.13;8.03;;;10.10;99.90;;;;;;4982563;28;20439;-38
2024/02/03 04:37:35;;;;;;;8.90;7.07;;;10.10;99.90;;;;;;4982407;28;20421;-38
2024/02/03 04:40:02;;;;;;;9.13;7.70;;;10.10;99.90;;;;;;4977110;28;20444;-35
2024/02/03 04:42:28;;;;;;;10.07;8.27;;;10.10;99.90;;;;;;4987650;28;20595;-35
2024/02/03 04:44:55;;;;;;;7.57;6.77;;;10.10;99.90;;;;;;4979682;28;20436;-35
2024/02/03 04:47:23;;;;;;;8.63;7.67;;;10.10;99.90;;;;;;4972704;28;20445;-38
2024/02/03 04:49:49;;;;;;;8.83;7.43;;;10.10;99.90;;;;;;4991419;28;21061;-37
2024/02/03 04:52:15;;;;;;;8.87;7.60;;;10.10;99.90;;;;;;4993952;28;20529;-37
2024/02/03 04:54:41;;;;;;;8.07;6.17;;;10.10;99.90;;;;;;4980855;28;21260;-35
2024/02/03 04:57:08;;;;;;;8.70;7.30;;;10.10;99.90;;;;;;4990207;28;20491;-34
2024/02/03 04:59:36;;;;;;;7.67;6.87;;;10.10;99.90;;;;;;4991049;28;20422;-38
2024/02/03 05:02:02;;;;;;;8.40;7.00;;;10.10;99.90;;;;;;4984481;28;20460;-35
2024/02/03 05:04:28;;;;;;;9.17;7.40;;;10.10;99.90;;;;;;4985469;28;20481;-31
2024/02/03 05:06:55;;;;;;;8.73;7.67;;;10.10;99.90;;;;;;4990986;28;20464;-40
2024/02/03 05:09:23;;;;;;;9.50;8.50;;;10.10;99.90;;;;;;4988651;28;21052;-39
2024/02/03 05:11:50;;;;;;;8.80;6.77;;;10.10;99.90;;;;;;5003443;28;20956;-35
2024/02/03 05:14:18;;;;;;;10.10;7.93;;;10.10;99.90;;;;;;4995727;28;20917;-41
2024/02/03 05:16:44;;;;;;;7.90;6.90;;;10.10;99.90;;;;;;4986487;28;20421;-38
2024/02/03 05:19:12;;;;;;;8.50;7.13;;;10.10;99.90;;;;;;5000304;28;20420;-36
2024/02/03 05:21:42;;;;;;;9.57;7.30;;;10.10;99.90;;;;;;5001391;28;20603;-34
2024/02/03 05:24:08;;;;;;;8.00;6.97;;;10.10;99.90;;;;;;4999091;28;20826;-36
2024/02/03 05:26:34;;;;;;;13.97;7.77;;;10.10;99.90;;;;;;5000751;28;20424;-35
2024/02/03 05:29:00;;;;;;;10.20;8.47;;;10.10;99.90;;;;;;5000233;28;20424;-35
2024/02/03 05:31:26;;;;;;;9.30;7.83;;;10.10;99.90;;;;;;5000446;28;20476;-33
2024/02/03 05:33:56;;;;;;;10.80;8.37;;;10.10;99.90;;;;;;4999778;28;20231;-31
2024/02/03 05:36:27;;;;;;;10.13;8.30;;;10.10;99.90;;;;;;5000124;28;21184;-36
2024/02/03 05:38:55;;;;;;;10.57;7.93;;;10.20;99.90;;;;;;4999922;28;21338;-37
2024/02/03 05:41:23;;;;;;;10.87;8.30;;;10.10;99.90;;;;;;5000802;28;20481;-36
2024/02/03 05:43:51;;;;;;;9.13;8.13;;;10.20;99.90;;;;;;5000141;28;21161;-33
2024/02/03 05:46:17;;;;;;;10.10;7.57;;;10.20;99.90;;;;;;4999897;28;20535;-32
2024/02/03 05:48:43;;;;;;;9.60;8.13;;;10.10;99.90;;;;;;4998365;28;20931;-37
2024/02/03 05:51:11;;;;;;;10.47;7.67;;;10.10;99.90;;;;;;4998412;28;20561;-34
2024/02/03 05:53:39;;;;;;;9.77;8.50;;;10.20;99.90;;;;;;5014551;28;20910;-35
2024/02/03 05:56:05;;;;;;;9.93;8.40;;;10.20;99.90;;;;;;4997884;28;20424;-35
2024/02/03 05:58:34;;;;;;;8.60;7.57;;;10.20;99.90;;;;;;4981782;28;20424;-34
2024/02/03 06:01:00;;;;;;;8.90;7.63;;;10.20;99.90;;;;;;4999786;28;20447;-35
2024/02/03 06:03:26;;;;;;;9.23;7.50;;;10.20;99.90;;;;;;4999317;28;20432;-33
2024/02/03 06:05:52;;;;;;;8.60;7.30;;;10.20;99.90;;;;;;5000252;28;20902;-35
2024/02/03 06:08:18;;;;;;;10.10;8.33;;;10.20;99.90;;;;;;4999095;28;20433;-30
2024/02/03 06:10:44;;;;;;;9.67;7.90;;;10.20;99.90;;;;;;5000301;28;21021;-38
2024/02/03 06:13:14;;;;;;;9.70;7.47;;;10.20;99.90;;;;;;4999111;28;20252;-30
2024/02/03 06:15:39;;;;;;;10.27;7.90;;;10.20;99.90;;;;;;4998507;28;20417;-32
2024/02/03 06:18:06;;;;;;;10.67;8.80;;;10.20;99.90;;;;;;5000265;28;20423;-30
2024/02/03 06:20:32;;;;;;;9.87;7.10;;;10.20;99.90;;;;;;4998172;28;20432;-35
2024/02/03 06:22:58;;;;;;;8.73;7.43;;;10.20;99.90;;;;;;4982146;28;20841;-33
2024/02/03 06:25:24;;;;;;;9.43;8.00;;;10.20;99.90;;;;;;5000180;28;20491;-33
2024/02/03 06:27:50;;;;;;;11.40;8.70;;;10.20;99.90;;;;;;5000940;28;20512;-32
2024/02/03 06:30:17;;;;;;;9.00;7.80;;;10.20;99.90;;;;;;4982571;28;20433;-34
2024/02/03 06:32:43;;;;;;;9.10;7.10;;;10.20;99.90;;;;;;4998089;28;20452;-30
2024/02/03 06:35:11;;;;;;;8.93;6.93;;;10.20;99.90;;;;;;4998000;28;21021;-33
2024/02/03 06:37:37;;;;;;;8.17;7.10;;;10.20;99.90;;;;;;4997452;28;20488;-39
2024/02/03 06:40:04;;;;;;;8.07;6.40;;;10.20;99.90;;;;;;4998517;28;20680;-33
2024/02/03 06:42:30;;;;;;;7.70;6.90;;;10.20;99.90;;;;;;4997061;28;20534;-30
2024/02/03 06:44:56;;;;;;;8.53;7.27;;;10.20;99.90;;;;;;4998733;28;20480;-32
2024/02/03 06:47:22;;;;;;;11.30;7.43;;;10.20;99.90;;;;;;4998773;28;20409;-36
2024/02/03 06:49:48;;;;;;;9.10;7.50;;;10.20;99.90;;;;;;4996768;28;20447;-33
2024/02/03 06:52:17;;;;;;;10.57;7.90;;;10.20;99.90;;;;;;4996899;28;21396;-37
2024/02/03 06:54:43;;;;;;;8.20;6.67;;;10.20;99.90;;;;;;4998296;28;20429;-30
2024/02/03 06:57:09;;;;;;;9.43;7.73;;;10.20;99.90;;;;;;4981575;28;20789;-35
2024/02/03 06:59:37;;;;;;;10.40;7.33;;;10.20;99.90;;;;;;4965867;28;20985;-37
2024/02/03 07:02:06;;;;;;;9.23;6.60;;;10.20;99.90;;;;;;4998326;28;20456;-34
2024/02/03 07:04:32;;;;;;;9.13;7.17;;;10.30;99.90;;;;;;4996141;28;20463;-32
2024/02/03 07:07:02;;;;;;;8.23;6.93;;;10.20;99.90;;;;;;4997510;28;20432;-35
2024/02/03 07:09:28;;;;;;;8.77;6.77;;;10.20;99.90;;;;;;4995842;28;21014;-34
2024/02/03 07:11:54;;;;;;;8.90;7.50;;;10.20;99.90;;;;;;4998416;28;20465;-39
2024/02/03 07:14:20;;;;;;;9.40;7.47;;;10.30;99.90;;;;;;4996998;28;20425;-36
2024/02/03 07:16:47;;;;;;;7.43;6.73;;;10.20;99.90;;;;;;4997770;28;20536;-32
2024/02/03 07:19:13;;;;;;;9.07;7.50;;;10.20;99.90;;;;;;4995842;28;20425;-29
2024/02/03 07:21:41;;;;;;;8.63;7.67;;;10.30;99.90;;;;;;4997823;28;21035;-29
2024/02/03 07:24:07;;;;;;;9.93;6.80;;;10.30;99.90;;;;;;4997450;28;20213;-32
2024/02/03 07:26:33;;;;;;;7.17;6.47;;;10.30;99.90;;;;;;4997920;28;20420;-36
2024/02/03 07:29:04;;;;;;;9.80;7.10;;;10.30;99.90;;;;;;4997567;28;20420;-37
2024/02/03 07:31:30;;;;;;;11.10;6.80;;;10.30;99.90;;;;;;4997559;28;20463;-37
2024/02/03 07:33:57;;;;;;;8.23;7.17;;;10.20;99.90;;;;;;4986309;28;20426;-31
2024/02/03 07:36:27;;;;;;;7.80;7.00;;;10.30;99.90;;;;;;4976037;28;20496;-35
2024/02/03 07:38:54;;;;;;;9.07;7.10;;;10.30;99.90;;;;;;4987984;28;20853;-35
2024/02/03 07:41:20;;;;;;;8.00;6.97;;;10.30;99.90;;;;;;4996456;28;20444;-29
2024/02/03 07:43:48;;;;;;;8.23;6.60;;;10.30;99.90;;;;;;4997032;28;20555;-31
2024/02/03 07:46:14;;;;;;;7.90;7.10;;;10.30;99.90;;;;;;4997130;28;20429;-38
2024/02/03 07:48:42;;;;;;;10.27;6.67;;;10.30;99.90;;;;;;4978934;28;20927;-36
2024/02/03 07:51:08;;;;;;;9.50;6.37;;;10.30;99.90;;;;;;4996980;28;21088;-37
2024/02/03 07:53:34;;;;;;;9.13;7.70;;;10.30;99.90;;;;;;4997509;28;20486;-34
2024/02/03 07:56:00;;;;;;;8.23;7.33;;;10.30;99.90;;;;;;4996299;28;20771;-35
2024/02/03 07:58:29;;;;;;;8.43;6.70;;;10.30;99.90;;;;;;5002051;28;20464;-37
2024/02/03 08:00:59;;;;;;;9.27;7.63;;;10.30;99.90;;;;;;4985960;28;20486;-32
2024/02/03 08:03:25;;;;;;;8.03;7.03;;;10.30;99.90;;;;;;4983408;28;20471;-34
2024/02/03 08:05:51;;;;;;;8.60;7.27;;;10.30;99.90;;;;;;4991836;28;20467;-38
2024/02/03 08:08:17;;;;;;;7.43;6.70;;;10.30;99.90;;;;;;4991284;28;20499;-37
2024/02/03 08:10:45;;;;;;;10.20;8.50;;;10.30;99.90;;;;;;4990969;28;20533;-38
2024/02/03 08:13:12;;;;;;;8.90;7.30;;;10.30;99.90;;;;;;4987872;28;20428;-38
2024/02/03 08:15:39;;;;;;;10.90;7.40;;;10.30;99.90;;;;;;4988218;28;20543;-39
2024/02/03 08:18:06;;;;;;;8.20;7.17;;;10.30;99.90;;;;;;4986946;28;20433;-32
2024/02/03 08:20:32;;;;;;;10.50;8.30;;;10.30;99.90;;;;;;4994838;28;20464;-34
2024/02/03 08:22:58;;;;;;;9.80;7.57;;;10.30;99.90;;;;;;4971192;28;20522;-37
2024/02/03 08:25:25;;;;;;;7.40;6.70;;;10.30;99.90;;;;;;4995738;28;20463;-37
2024/02/03 08:27:51;;;;;;;9.60;7.20;;;10.30;99.90;;;;;;4997027;28;20421;-35
2024/02/03 08:30:17;;;;;;;9.60;7.57;;;10.40;99.90;;;;;;4990522;28;20506;-36
2024/02/03 08:32:43;;;;;;;8.30;7.50;;;10.30;99.90;;;;;;4990998;28;20457;-30
2024/02/03 08:35:09;;;;;;;8.33;7.33;;;10.30;99.90;;;;;;4992923;28;21326;-34
2024/02/03 08:37:35;;;;;;;8.30;7.47;;;10.40;99.90;;;;;;4988154;28;20444;-34
2024/02/03 08:40:01;;;;;;;10.07;6.70;;;10.40;99.90;;;;;;4987513;28;20530;-37
2024/02/03 08:42:27;;;;;;;9.77;7.83;;;10.40;99.90;;;;;;4994561;28;21491;-36
2024/02/03 08:44:53;;;;;;;8.00;6.40;;;10.40;99.90;;;;;;4994998;28;20875;-36
2024/02/03 08:47:22;;;;;;;8.57;7.43;;;10.40;99.90;;;;;;4992024;28;20433;-35
2024/02/03 08:49:52;;;;;;;8.00;7.20;;;10.40;99.90;;;;;;4981663;28;20452;-33
2024/02/03 08:52:23;;;;;;;10.67;8.10;;;10.40;99.90;;;;;;4977944;28;20611;-32
2024/02/03 08:54:49;;;;;;;11.27;8.77;;;10.40;99.90;;;;;;4981214;28;20436;-34
2024/02/03 08:57:15;;;;;;;8.53;7.03;;;10.40;99.90;;;;;;4996789;28;20441;-35
2024/02/03 08:59:45;;;;;;;8.70;7.23;;;10.40;99.90;;;;;;4986640;28;20449;-35
2024/02/03 09:02:11;;;;;;;8.73;7.70;;;10.40;99.90;;;;;;4984068;28;20792;-38
2024/02/03 09:04:37;;;;;;;9.67;7.90;;;10.40;99.90;;;;;;4985577;28;20557;-36
2024/02/03 09:07:03;;;;;;;9.00;7.70;;;10.40;99.90;;;;;;4988549;28;20425;-38
2024/02/03 09:09:30;;;;;;;9.67;7.23;;;10.40;99.90;;;;;;5000500;28;20775;-40
2024/02/03 09:11:56;;;;;;;9.53;7.20;;;10.40;99.90;;;;;;5001729;28;20461;-41
2024/02/03 09:14:22;;;;;;;11.27;8.37;;;10.40;99.90;;;;;;5000473;28;20425;-36
2024/02/03 09:16:48;;;;;;;8.93;7.93;;;10.40;99.90;;;;;;4999743;28;20412;-36
2024/02/03 09:19:14;;;;;;;7.17;6.47;;;10.40;99.90;;;;;;4994540;28;20468;-32
2024/02/03 09:21:41;;;;;;;11.50;8.27;;;10.40;99.90;;;;;;4979674;28;20441;-33
2024/02/03 09:24:09;;;;;;;14.50;8.03;;;10.40;99.90;;;;;;4979688;28;20418;-39
2024/02/03 09:26:39;;;;;;;8.67;7.77;;;10.40;99.90;;;;;;4978624;28;20452;-36
2024/02/03 09:29:08;;;;;;;9.47;7.80;;;10.40;99.90;;;;;;4979920;28;20449;-34
2024/02/03 09:31:34;;;;;;;9.93;8.40;;;10.40;99.90;;;;;;4987173;28;20471;-37
2024/02/03 09:34:04;;;;;;;9.30;7.50;;;10.40;99.90;;;;;;4997728;28;20417;-36
2024/02/03 09:36:31;;;;;;;11.73;7.57;;;10.40;99.90;;;;;;4998253;28;20409;-38
2024/02/03 09:39:23;;;;;;;8.40;7.50;;;10.40;99.90;;;;;;4988593;28;20424;-38
2024/02/03 09:41:52;;;;;;;8.70;7.87;;;10.40;99.90;;;;;;4978991;28;20994;-39
2024/02/03 09:44:18;;;;;;;9.63;8.10;;;10.40;99.90;;;;;;4985482;28;20507;-35
2024/02/03 09:46:44;;;;;;;8.97;7.67;;;10.40;99.90;;;;;;4980336;28;20417;-32
2024/02/03 09:49:12;;;;;;;8.70;7.70;;;10.50;99.90;;;;;;4995998;28;21097;-34
2024/02/03 09:51:39;;;;;;;12.47;8.10;;;10.50;99.90;;;;;;4997665;28;20475;-34
2024/02/03 09:54:06;;;;;;;9.70;8.00;;;10.50;99.90;;;;;;4997902;28;21176;-36
2024/02/03 09:56:32;;;;;;;8.73;7.70;;;10.50;99.90;;;;;;4991337;28;20448;-35
2024/02/03 09:58:58;;;;;;;11.03;8.50;;;10.50;99.90;;;;;;4993166;28;20436;-34
2024/02/03 10:01:24;;;;;;;9.13;8.00;;;10.50;99.90;;;;;;4993515;28;20473;-37
2024/02/03 22:05:25;;;;;;;18.60;12.93;;;11.20;99.90;;;;;;4573029;22;20506;-32
2024/02/03 22:07:56;;;;;;;20.17;13.30;;;11.20;99.90;;;;;;5120218;27;20400;-39
2024/02/03 22:10:23;;;;;;;19.27;12.87;;;11.20;99.90;;;;;;5094633;28;20524;-36
2024/02/03 22:12:51;;;;;;;16.90;12.17;;;11.20;99.90;;;;;;5099984;28;20464;-39
2024/02/03 22:15:19;;;;;;;17.67;12.73;;;11.20;99.90;;;;;;5063504;28;20451;-35
2024/02/03 22:17:49;;;;;;;17.77;12.50;;;11.20;99.90;;;;;;5099545;28;20424;-35
2024/02/03 22:20:15;;;;;;;16.30;12.70;;;11.30;99.90;;;;;;5099167;28;20432;-36
2024/02/03 22:22:41;;;;;;;16.83;13.50;;;11.30;99.90;;;;;;5100022;28;20455;-32
2024/02/03 22:25:07;;;;;;;16.00;11.93;;;11.30;99.90;;;;;;5080893;28;20424;-29
2024/02/03 22:27:33;;;;;;;17.03;12.87;;;11.30;99.90;;;;;;5100246;28;20416;-34
2024/02/03 22:29:59;;;;;;;19.50;12.77;;;11.30;99.90;;;;;;5099163;28;21062;-34
2024/02/03 22:32:30;;;;;;;14.77;11.80;;;11.30;99.90;;;;;;5080228;28;20495;-32
2024/02/03 22:34:58;;;;;;;16.63;11.80;;;11.30;99.90;;;;;;5098974;28;20432;-40
2024/02/03 22:37:24;;;;;;;15.37;11.97;;;11.30;99.90;;;;;;5080432;28;20412;-31
2024/02/03 22:39:55;;;;;;;16.40;11.10;;;11.30;99.90;;;;;;5080744;28;20397;-33
2024/02/03 22:42:23;;;;;;;16.40;11.70;;;11.30;99.90;;;;;;5098613;28;20439;-35
2024/02/03 22:44:51;;;;;;;15.27;11.50;;;11.30;99.90;;;;;;5098650;28;20993;-35
2024/02/03 22:47:17;;;;;;;17.27;12.00;;;11.30;99.90;;;;;;5080159;28;20408;-34
2024/02/03 22:49:43;;;;;;;14.40;10.70;;;11.30;99.90;;;;;;5063125;28;20431;-37
2024/02/03 22:52:09;;;;;;;12.27;9.97;;;11.30;99.90;;;;;;5080051;28;21342;-30
2024/02/03 22:54:35;;;;;;;14.30;10.70;;;11.30;99.90;;;;;;5098408;28;20420;-32
2024/02/03 22:57:01;;;;;;;13.53;10.60;;;11.30;99.90;;;;;;5098656;28;20791;-36
2024/02/03 22:59:29;;;;;;;11.93;9.90;;;11.30;99.90;;;;;;5079379;28;20477;-36
2024/02/03 23:01:56;;;;;;;13.83;10.67;;;11.30;99.90;;;;;;5098240;28;20443;-34
2024/02/03 23:04:23;;;;;;;14.73;11.57;;;11.30;99.90;;;;;;5078942;28;20486;-36
2024/02/03 23:06:48;;;;;;;14.70;9.80;;;11.30;99.90;;;;;;5098742;28;20518;-39
2024/02/03 23:09:15;;;;;;;12.07;10.13;;;11.30;99.90;;;;;;5079771;28;20430;-35
2024/02/03 23:11:42;;;;;;;13.23;10.43;;;11.30;99.90;;;;;;5097815;28;20468;-37
2024/02/03 23:14:11;;;;;;;14.53;10.87;;;11.30;99.90;;;;;;5062972;28;20412;-37
2024/02/03 23:16:37;;;;;;;10.93;9.80;;;11.40;99.90;;;;;;5098223;28;20914;-34
2024/02/03 23:19:03;;;;;;;17.40;10.40;;;11.30;99.90;;;;;;5093217;28;20509;-32
2024/02/03 23:21:29;;;;;;;14.73;9.57;;;11.30;99.90;;;;;;5059267;28;21221;-28
2024/02/03 23:23:55;;;;;;;10.63;9.40;;;11.30;99.90;;;;;;5077711;28;20435;-37
2024/02/03 23:26:21;;;;;;;13.40;9.97;;;11.30;99.90;;;;;;5077098;28;20843;-37
2024/02/03 23:28:47;;;;;;;12.80;9.43;;;11.30;99.90;;;;;;5077350;28;20424;-35
2024/02/03 23:31:14;;;;;;;11.73;9.70;;;11.30;99.90;;;;;;5084167;28;20471;-35
2024/02/03 23:33:42;;;;;;;12.47;10.50;;;11.30;99.90;;;;;;5062512;28;20444;-35
2024/02/03 23:36:13;;;;;;;11.43;9.87;;;11.30;99.90;;;;;;5062338;28;20424;-35
2024/02/03 23:38:40;;;;;;;10.13;8.73;;;11.30;99.90;;;;;;5098021;28;20416;-37
2024/02/03 23:41:06;;;;;;;10.93;9.03;;;11.30;99.90;;;;;;5097725;28;20798;-39
2024/02/03 23:43:33;;;;;;;11.33;8.50;;;11.30;99.90;;;;;;5079444;28;20477;-35
2024/02/03 23:45:59;;;;;;;12.30;8.73;;;11.30;99.90;;;;;;5097111;28;20408;-35
2024/02/03 23:48:25;;;;;;;11.00;8.50;;;11.30;99.90;;;;;;5062437;28;20432;-34
2024/02/03 23:50:51;;;;;;;11.67;9.10;;;11.30;99.90;;;;;;5098002;28;20408;-37
2024/02/03 23:53:20;;;;;;;12.07;8.77;;;11.30;99.90;;;;;;5079822;28;20787;-38
2024/02/03 23:55:50;;;;;;;11.33;8.37;;;11.30;99.90;;;;;;5097762;28;20469;-36
2024/02/03 23:58:19;;;;;;;10.47;7.40;;;11.30;99.90;;;;;;5079269;28;21040;-39
